sensor_id;sensor_type;location;lat;lon;timestamp;P1;durP1;ratioP1;P2;durP2;ratioP2
57055;SDS011;42945;51.718;5.324;2023-05-31T00:00:17;5.15;;;3.80;;
57055;SDS011;42945;51.718;5.324;2023-05-31T00:06:05;7.95;;;3.90;;
57055;SDS011;42945;51.718;5.324;2023-05-31T00:11:52;6.70;;;4.00;;
57055;SDS011;42945;51.718;5.324;2023-05-31T00:17:41;6.55;;;3.67;;
57055;SDS011;42945;51.718;5.324;2023-05-31T00:23:28;6.07;;;3.63;;
57055;SDS011;42945;51.718;5.324;2023-05-31T00:29:17;10.65;;;4.40;;
57055;SDS011;42945;51.718;5.324;2023-05-31T00:35:05;6.03;;;4.15;;
57055;SDS011;42945;51.718;5.324;2023-05-31T00:40:53;9.45;;;4.30;;
57055;SDS011;42945;51.718;5.324;2023-05-31T00:46:41;8.15;;;4.82;;
57055;SDS011;42945;51.718;5.324;2023-05-31T00:52:29;8.18;;;4.90;;
57055;SDS011;42945;51.718;5.324;2023-05-31T00:58:20;8.77;;;4.40;;
57055;SDS011;42945;51.718;5.324;2023-05-31T01:04:11;13.10;;;4.75;;
57055;SDS011;42945;51.718;5.324;2023-05-31T01:10:00;10.60;;;4.53;;
57055;SDS011;42945;51.718;5.324;2023-05-31T01:16:02;11.48;;;5.35;;
57055;SDS011;42945;51.718;5.324;2023-05-31T01:28:20;10.55;;;5.00;;
57055;SDS011;42945;51.718;5.324;2023-05-31T01:37:59;13.57;;;5.32;;
57055;SDS011;42945;51.718;5.324;2023-05-31T01:43:47;9.70;;;5.15;;
57055;SDS011;42945;51.718;5.324;2023-05-31T01:49:36;10.27;;;5.47;;
57055;SDS011;42945;51.718;5.324;2023-05-31T01:55:27;10.68;;;5.60;;
57055;SDS011;42945;51.718;5.324;2023-05-31T02:01:15;14.98;;;5.80;;
57055;SDS011;42945;51.718;5.324;2023-05-31T02:07:05;12.15;;;5.85;;
57055;SDS011;42945;51.718;5.324;2023-05-31T02:12:53;12.32;;;6.13;;
57055;SDS011;42945;51.718;5.324;2023-05-31T02:18:41;11.13;;;5.65;;
57055;SDS011;42945;51.718;5.324;2023-05-31T02:24:29;14.45;;;6.60;;
57055;SDS011;42945;51.718;5.324;2023-05-31T02:30:18;11.32;;;6.20;;
57055;SDS011;42945;51.718;5.324;2023-05-31T02:40:03;13.48;;;6.70;;
57055;SDS011;42945;51.718;5.324;2023-05-31T02:45:56;14.50;;;5.85;;
57055;SDS011;42945;51.718;5.324;2023-05-31T02:51:48;12.65;;;6.38;;
57055;SDS011;42945;51.718;5.324;2023-05-31T02:57:37;12.43;;;6.53;;
57055;SDS011;42945;51.718;5.324;2023-05-31T03:03:25;13.73;;;6.70;;
57055;SDS011;42945;51.718;5.324;2023-05-31T03:09:14;13.68;;;6.30;;
57055;SDS011;42945;51.718;5.324;2023-05-31T03:15:04;19.20;;;7.53;;
57055;SDS011;42945;51.718;5.324;2023-05-31T03:20:53;17.38;;;7.65;;
57055;SDS011;42945;51.718;5.324;2023-05-31T03:26:40;17.10;;;8.15;;
57055;SDS011;42945;51.718;5.324;2023-05-31T03:32:27;16.65;;;7.72;;
57055;SDS011;42945;51.718;5.324;2023-05-31T03:42:13;16.10;;;7.80;;
57055;SDS011;42945;51.718;5.324;2023-05-31T03:48:00;17.13;;;8.30;;
57055;SDS011;42945;51.718;5.324;2023-05-31T03:53:48;19.08;;;8.20;;
57055;SDS011;42945;51.718;5.324;2023-05-31T03:59:37;23.45;;;8.20;;
57055;SDS011;42945;51.718;5.324;2023-05-31T04:05:25;20.52;;;8.93;;
57055;SDS011;42945;51.718;5.324;2023-05-31T04:11:13;18.17;;;7.80;;
57055;SDS011;42945;51.718;5.324;2023-05-31T04:17:01;17.92;;;8.27;;
57055;SDS011;42945;51.718;5.324;2023-05-31T04:22:50;20.73;;;8.38;;
57055;SDS011;42945;51.718;5.324;2023-05-31T04:28:40;17.00;;;8.55;;
57055;SDS011;42945;51.718;5.324;2023-05-31T04:34:29;18.13;;;8.48;;
57055;SDS011;42945;51.718;5.324;2023-05-31T04:44:10;20.38;;;9.18;;
57055;SDS011;42945;51.718;5.324;2023-05-31T04:50:05;21.08;;;9.07;;
57055;SDS011;42945;51.718;5.324;2023-05-31T04:55:54;18.83;;;8.80;;
57055;SDS011;42945;51.718;5.324;2023-05-31T05:01:42;21.75;;;9.35;;
57055;SDS011;42945;51.718;5.324;2023-05-31T05:07:30;21.63;;;9.40;;
57055;SDS011;42945;51.718;5.324;2023-05-31T05:13:18;21.05;;;9.70;;
57055;SDS011;42945;51.718;5.324;2023-05-31T05:19:07;21.10;;;9.90;;
57055;SDS011;42945;51.718;5.324;2023-05-31T05:24:55;21.70;;;8.82;;
57055;SDS011;42945;51.718;5.324;2023-05-31T05:30:44;22.05;;;10.25;;
57055;SDS011;42945;51.718;5.324;2023-05-31T05:36:33;23.63;;;10.67;;
57055;SDS011;42945;51.718;5.324;2023-05-31T05:46:14;19.35;;;9.48;;
57055;SDS011;42945;51.718;5.324;2023-05-31T05:52:02;26.08;;;11.23;;
57055;SDS011;42945;51.718;5.324;2023-05-31T05:57:51;24.70;;;10.05;;
57055;SDS011;42945;51.718;5.324;2023-05-31T06:03:39;21.38;;;10.45;;
57055;SDS011;42945;51.718;5.324;2023-05-31T06:09:27;24.05;;;11.48;;
57055;SDS011;42945;51.718;5.324;2023-05-31T06:15:15;20.17;;;11.10;;
57055;SDS011;42945;51.718;5.324;2023-05-31T06:21:03;37.95;;;11.20;;
57055;SDS011;42945;51.718;5.324;2023-05-31T06:26:51;25.20;;;11.63;;
57055;SDS011;42945;51.718;5.324;2023-05-31T06:32:39;24.52;;;10.73;;
57055;SDS011;42945;51.718;5.324;2023-05-31T06:38:26;26.40;;;11.60;;
57055;SDS011;42945;51.718;5.324;2023-05-31T06:44:14;24.23;;;11.43;;
57055;SDS011;42945;51.718;5.324;2023-05-31T06:50:01;23.42;;;11.02;;
57055;SDS011;42945;51.718;5.324;2023-05-31T06:55:49;23.13;;;11.15;;
57055;SDS011;42945;51.718;5.324;2023-05-31T07:01:38;22.10;;;11.25;;
57055;SDS011;42945;51.718;5.324;2023-05-31T07:07:27;19.80;;;11.32;;
57055;SDS011;42945;51.718;5.324;2023-05-31T07:13:15;22.75;;;11.38;;
57055;SDS011;42945;51.718;5.324;2023-05-31T07:19:04;25.00;;;11.25;;
57055;SDS011;42945;51.718;5.324;2023-05-31T07:24:52;29.35;;;12.95;;
57055;SDS011;42945;51.718;5.324;2023-05-31T07:30:40;25.35;;;11.75;;
57055;SDS011;42945;51.718;5.324;2023-05-31T07:36:27;27.63;;;11.63;;
57055;SDS011;42945;51.718;5.324;2023-05-31T07:42:15;26.52;;;12.55;;
57055;SDS011;42945;51.718;5.324;2023-05-31T07:48:03;24.80;;;10.88;;
57055;SDS011;42945;51.718;5.324;2023-05-31T07:53:51;25.13;;;11.52;;
57055;SDS011;42945;51.718;5.324;2023-05-31T07:59:39;26.02;;;11.02;;
57055;SDS011;42945;51.718;5.324;2023-05-31T08:05:27;24.27;;;10.65;;
57055;SDS011;42945;51.718;5.324;2023-05-31T08:11:14;18.98;;;9.90;;
57055;SDS011;42945;51.718;5.324;2023-05-31T08:17:03;22.47;;;10.83;;
57055;SDS011;42945;51.718;5.324;2023-05-31T08:22:52;21.10;;;9.63;;
57055;SDS011;42945;51.718;5.324;2023-05-31T08:28:40;22.00;;;8.73;;
57055;SDS011;42945;51.718;5.324;2023-05-31T08:34:27;23.35;;;9.93;;
57055;SDS011;42945;51.718;5.324;2023-05-31T08:40:16;18.63;;;9.23;;
57055;SDS011;42945;51.718;5.324;2023-05-31T08:49:51;20.65;;;8.63;;
57055;SDS011;42945;51.718;5.324;2023-05-31T08:55:41;14.98;;;7.63;;
57055;SDS011;42945;51.718;5.324;2023-05-31T09:01:33;18.20;;;7.10;;
57055;SDS011;42945;51.718;5.324;2023-05-31T09:07:22;16.40;;;7.22;;
57055;SDS011;42945;51.718;5.324;2023-05-31T09:13:10;19.60;;;6.88;;
57055;SDS011;42945;51.718;5.324;2023-05-31T09:18:59;18.07;;;5.83;;
57055;SDS011;42945;51.718;5.324;2023-05-31T09:24:49;12.03;;;5.60;;
57055;SDS011;42945;51.718;5.324;2023-05-31T09:30:38;15.73;;;5.40;;
57055;SDS011;42945;51.718;5.324;2023-05-31T09:36:28;16.65;;;5.28;;
57055;SDS011;42945;51.718;5.324;2023-05-31T09:42:18;15.95;;;4.95;;
57055;SDS011;42945;51.718;5.324;2023-05-31T09:51:59;18.63;;;4.72;;
57055;SDS011;42945;51.718;5.324;2023-05-31T09:57:47;11.80;;;4.35;;
57055;SDS011;42945;51.718;5.324;2023-05-31T10:03:40;12.40;;;4.13;;
57055;SDS011;42945;51.718;5.324;2023-05-31T10:09:29;14.02;;;3.63;;
57055;SDS011;42945;51.718;5.324;2023-05-31T10:15:26;14.55;;;3.92;;
57055;SDS011;42945;51.718;5.324;2023-05-31T10:27:16;11.52;;;3.30;;
57055;SDS011;42945;51.718;5.324;2023-05-31T10:33:11;10.87;;;3.00;;
57055;SDS011;42945;51.718;5.324;2023-05-31T10:52:03;11.57;;;2.90;;
57055;SDS011;42945;51.718;5.324;2023-05-31T10:57:53;10.27;;;2.38;;
57055;SDS011;42945;51.718;5.324;2023-05-31T11:03:46;6.40;;;2.50;;
57055;SDS011;42945;51.718;5.324;2023-05-31T11:09:34;7.40;;;3.25;;
57055;SDS011;42945;51.718;5.324;2023-05-31T11:15:47;7.70;;;2.25;;
57055;SDS011;42945;51.718;5.324;2023-05-31T11:21:50;9.35;;;1.98;;
57055;SDS011;42945;51.718;5.324;2023-05-31T11:28:06;8.95;;;2.65;;
57055;SDS011;42945;51.718;5.324;2023-05-31T11:33:54;8.40;;;2.40;;
57055;SDS011;42945;51.718;5.324;2023-05-31T11:39:43;11.90;;;2.53;;
57055;SDS011;42945;51.718;5.324;2023-05-31T11:45:33;14.02;;;2.75;;
57055;SDS011;42945;51.718;5.324;2023-05-31T11:55:31;5.97;;;1.90;;
57055;SDS011;42945;51.718;5.324;2023-05-31T12:01:19;7.18;;;2.15;;
57055;SDS011;42945;51.718;5.324;2023-05-31T12:07:08;9.85;;;2.47;;
57055;SDS011;42945;51.718;5.324;2023-05-31T12:12:58;8.23;;;2.08;;
57055;SDS011;42945;51.718;5.324;2023-05-31T12:18:47;10.60;;;1.70;;
57055;SDS011;42945;51.718;5.324;2023-05-31T12:24:36;7.87;;;2.00;;
57055;SDS011;42945;51.718;5.324;2023-05-31T12:30:23;8.45;;;2.30;;
57055;SDS011;42945;51.718;5.324;2023-05-31T12:36:12;6.97;;;2.30;;
57055;SDS011;42945;51.718;5.324;2023-05-31T12:42:02;7.43;;;2.65;;
57055;SDS011;42945;51.718;5.324;2023-05-31T12:47:56;9.63;;;2.60;;
57055;SDS011;42945;51.718;5.324;2023-05-31T12:57:45;12.52;;;2.58;;
57055;SDS011;42945;51.718;5.324;2023-05-31T13:03:32;8.90;;;2.20;;
57055;SDS011;42945;51.718;5.324;2023-05-31T13:09:20;7.25;;;2.33;;
57055;SDS011;42945;51.718;5.324;2023-05-31T13:15:09;8.45;;;2.67;;
57055;SDS011;42945;51.718;5.324;2023-05-31T13:20:58;10.90;;;2.72;;
57055;SDS011;42945;51.718;5.324;2023-05-31T13:26:49;7.03;;;2.50;;
57055;SDS011;42945;51.718;5.324;2023-05-31T13:32:38;7.45;;;2.40;;
57055;SDS011;42945;51.718;5.324;2023-05-31T13:38:26;7.82;;;2.35;;
57055;SDS011;42945;51.718;5.324;2023-05-31T13:44:15;14.55;;;2.53;;
57055;SDS011;42945;51.718;5.324;2023-05-31T13:50:04;9.77;;;2.80;;
57055;SDS011;42945;51.718;5.324;2023-05-31T13:59:47;7.40;;;2.50;;
57055;SDS011;42945;51.718;5.324;2023-05-31T14:11:24;7.07;;;2.63;;
57055;SDS011;42945;51.718;5.324;2023-05-31T14:17:14;6.88;;;2.78;;
57055;SDS011;42945;51.718;5.324;2023-05-31T14:23:02;9.65;;;2.75;;
57055;SDS011;42945;51.718;5.324;2023-05-31T14:28:53;8.52;;;2.88;;
57055;SDS011;42945;51.718;5.324;2023-05-31T14:34:41;6.00;;;2.55;;
57055;SDS011;42945;51.718;5.324;2023-05-31T14:40:33;9.82;;;3.13;;
57055;SDS011;42945;51.718;5.324;2023-05-31T14:46:22;8.07;;;2.97;;
57055;SDS011;42945;51.718;5.324;2023-05-31T14:52:15;8.90;;;2.63;;
57055;SDS011;42945;51.718;5.324;2023-05-31T15:01:57;8.18;;;2.92;;
57055;SDS011;42945;51.718;5.324;2023-05-31T15:07:45;9.25;;;2.90;;
57055;SDS011;42945;51.718;5.324;2023-05-31T15:13:33;13.30;;;3.10;;
57055;SDS011;42945;51.718;5.324;2023-05-31T15:19:21;7.50;;;2.35;;
57055;SDS011;42945;51.718;5.324;2023-05-31T15:25:08;8.07;;;2.42;;
57055;SDS011;42945;51.718;5.324;2023-05-31T15:30:57;7.95;;;2.70;;
57055;SDS011;42945;51.718;5.324;2023-05-31T15:36:48;9.48;;;2.70;;
57055;SDS011;42945;51.718;5.324;2023-05-31T15:42:36;6.55;;;2.70;;
57055;SDS011;42945;51.718;5.324;2023-05-31T15:48:24;6.97;;;2.70;;
57055;SDS011;42945;51.718;5.324;2023-05-31T15:54:13;8.02;;;2.40;;
57055;SDS011;42945;51.718;5.324;2023-05-31T16:03:57;5.88;;;2.60;;
57055;SDS011;42945;51.718;5.324;2023-05-31T16:09:44;7.05;;;2.17;;
57055;SDS011;42945;51.718;5.324;2023-05-31T16:15:33;5.50;;;2.30;;
57055;SDS011;42945;51.718;5.324;2023-05-31T16:32:57;7.60;;;2.42;;
57055;SDS011;42945;51.718;5.324;2023-05-31T16:38:45;4.70;;;2.47;;
57055;SDS011;42945;51.718;5.324;2023-05-31T16:44:32;7.53;;;2.42;;
57055;SDS011;42945;51.718;5.324;2023-05-31T16:56:10;13.70;;;4.00;;
57055;SDS011;42945;51.718;5.324;2023-05-31T17:05:32;12.02;;;3.05;;
57055;SDS011;42945;51.718;5.324;2023-05-31T17:11:20;11.55;;;3.97;;
57055;SDS011;42945;51.718;5.324;2023-05-31T17:22:55;12.50;;;4.40;;
57055;SDS011;42945;51.718;5.324;2023-05-31T17:28:43;11.70;;;4.18;;
57055;SDS011;42945;51.718;5.324;2023-05-31T17:34:32;10.88;;;3.92;;
57055;SDS011;42945;51.718;5.324;2023-05-31T17:40:20;8.55;;;4.15;;
57055;SDS011;42945;51.718;5.324;2023-05-31T17:51:54;10.13;;;3.83;;
57055;SDS011;42945;51.718;5.324;2023-05-31T17:57:42;13.35;;;3.45;;
57055;SDS011;42945;51.718;5.324;2023-05-31T18:09:20;10.65;;;3.58;;
57055;SDS011;42945;51.718;5.324;2023-05-31T18:15:08;8.18;;;2.97;;
57055;SDS011;42945;51.718;5.324;2023-05-31T18:20:56;9.77;;;3.05;;
57055;SDS011;42945;51.718;5.324;2023-05-31T18:26:46;11.30;;;3.35;;
57055;SDS011;42945;51.718;5.324;2023-05-31T18:32:38;11.73;;;3.25;;
57055;SDS011;42945;51.718;5.324;2023-05-31T18:38:26;7.97;;;2.67;;
57055;SDS011;42945;51.718;5.324;2023-05-31T18:44:14;14.20;;;4.22;;
57055;SDS011;42945;51.718;5.324;2023-05-31T18:50:04;8.10;;;4.00;;
57055;SDS011;42945;51.718;5.324;2023-05-31T18:55:54;13.10;;;4.63;;
57055;SDS011;42945;51.718;5.324;2023-05-31T19:01:42;12.07;;;4.68;;
57055;SDS011;42945;51.718;5.324;2023-05-31T19:07:31;12.50;;;5.28;;
57055;SDS011;42945;51.718;5.324;2023-05-31T19:13:18;9.63;;;5.20;;
57055;SDS011;42945;51.718;5.324;2023-05-31T19:19:07;17.38;;;5.93;;
57055;SDS011;42945;51.718;5.324;2023-05-31T19:24:55;13.75;;;5.55;;
57055;SDS011;42945;51.718;5.324;2023-05-31T19:30:43;14.57;;;5.93;;
57055;SDS011;42945;51.718;5.324;2023-05-31T19:36:32;15.35;;;5.03;;
57055;SDS011;42945;51.718;5.324;2023-05-31T19:42:20;14.00;;;5.70;;
57055;SDS011;42945;51.718;5.324;2023-05-31T19:48:08;17.02;;;6.00;;
57055;SDS011;42945;51.718;5.324;2023-05-31T19:53:57;12.98;;;5.93;;
57055;SDS011;42945;51.718;5.324;2023-05-31T19:59:46;13.50;;;5.60;;
57055;SDS011;42945;51.718;5.324;2023-05-31T20:09:29;16.90;;;5.35;;
57055;SDS011;42945;51.718;5.324;2023-05-31T20:15:17;11.52;;;4.95;;
57055;SDS011;42945;51.718;5.324;2023-05-31T20:21:05;15.43;;;5.63;;
57055;SDS011;42945;51.718;5.324;2023-05-31T20:26:54;13.85;;;4.68;;
57055;SDS011;42945;51.718;5.324;2023-05-31T20:32:42;16.30;;;4.87;;
57055;SDS011;42945;51.718;5.324;2023-05-31T20:38:30;14.55;;;5.10;;
57055;SDS011;42945;51.718;5.324;2023-05-31T20:44:18;11.07;;;4.82;;
57055;SDS011;42945;51.718;5.324;2023-05-31T20:50:07;11.73;;;4.55;;
57055;SDS011;42945;51.718;5.324;2023-05-31T20:55:59;15.95;;;4.45;;
57055;SDS011;42945;51.718;5.324;2023-05-31T21:01:47;16.00;;;4.60;;
57055;SDS011;42945;51.718;5.324;2023-05-31T21:11:28;12.27;;;5.15;;
57055;SDS011;42945;51.718;5.324;2023-05-31T21:17:16;14.43;;;4.90;;
57055;SDS011;42945;51.718;5.324;2023-05-31T21:23:05;7.97;;;4.90;;
57055;SDS011;42945;51.718;5.324;2023-05-31T21:28:55;9.45;;;5.00;;
57055;SDS011;42945;51.718;5.324;2023-05-31T21:34:43;16.73;;;5.57;;
57055;SDS011;42945;51.718;5.324;2023-05-31T21:40:31;14.07;;;5.43;;
57055;SDS011;42945;51.718;5.324;2023-05-31T21:46:20;13.90;;;5.65;;
57055;SDS011;42945;51.718;5.324;2023-05-31T21:52:08;14.27;;;5.60;;
57055;SDS011;42945;51.718;5.324;2023-05-31T21:57:57;13.50;;;6.00;;
57055;SDS011;42945;51.718;5.324;2023-05-31T22:03:46;11.02;;;5.63;;
57055;SDS011;42945;51.718;5.324;2023-05-31T22:13:29;10.68;;;4.53;;
57055;SDS011;42945;51.718;5.324;2023-05-31T22:19:17;16.23;;;6.18;;
57055;SDS011;42945;51.718;5.324;2023-05-31T22:25:11;13.07;;;6.60;;
57055;SDS011;42945;51.718;5.324;2023-05-31T22:30:59;15.55;;;6.90;;
57055;SDS011;42945;51.718;5.324;2023-05-31T22:36:47;12.68;;;6.65;;
57055;SDS011;42945;51.718;5.324;2023-05-31T22:42:35;17.27;;;7.57;;
57055;SDS011;42945;51.718;5.324;2023-05-31T22:48:24;15.63;;;7.97;;
57055;SDS011;42945;51.718;5.324;2023-05-31T22:54:15;19.45;;;8.25;;
57055;SDS011;42945;51.718;5.324;2023-05-31T23:00:04;16.15;;;8.45;;
57055;SDS011;42945;51.718;5.324;2023-05-31T23:05:59;17.80;;;9.52;;
57055;SDS011;42945;51.718;5.324;2023-05-31T23:15:43;21.58;;;9.90;;
57055;SDS011;42945;51.718;5.324;2023-05-31T23:21:33;23.60;;;10.43;;
57055;SDS011;42945;51.718;5.324;2023-05-31T23:27:24;17.08;;;9.45;;
57055;SDS011;42945;51.718;5.324;2023-05-31T23:33:12;20.90;;;8.93;;
57055;SDS011;42945;51.718;5.324;2023-05-31T23:39:03;24.23;;;10.35;;
57055;SDS011;42945;51.718;5.324;2023-05-31T23:44:52;26.42;;;10.02;;
57055;SDS011;42945;51.718;5.324;2023-05-31T23:50:39;21.45;;;10.05;;
57055;SDS011;42945;51.718;5.324;2023-05-31T23:56:29;23.25;;;10.43;;
